createdAt,value
2019-06-27T00:01:09.758Z,20.10
2019-06-27T00:03:13.738Z,20.10
2019-06-27T00:05:18.217Z,20.10
2019-06-27T00:07:22.205Z,20.20
2019-06-27T00:09:26.828Z,20.10
2019-06-27T00:11:30.982Z,20.20
2019-06-27T00:13:35.138Z,20.20
2019-06-27T00:15:39.147Z,20.20
2019-06-27T00:17:44.850Z,20.20
2019-06-27T00:19:48.876Z,20.10
2019-06-27T00:21:52.888Z,20.10
2019-06-27T00:23:57.168Z,20.10
2019-06-27T00:26:01.319Z,20.10
2019-06-27T00:28:05.468Z,20.00
2019-06-27T00:30:09.806Z,19.90
2019-06-27T00:32:13.927Z,20.00
2019-06-27T00:34:17.975Z,20.00
2019-06-27T00:36:22.168Z,20.00
2019-06-27T00:38:26.417Z,19.80
2019-06-27T00:40:30.373Z,19.90
2019-06-27T00:42:34.439Z,19.90
2019-06-27T00:44:38.427Z,19.90
2019-06-27T00:46:42.448Z,19.90
2019-06-27T00:48:46.639Z,19.80
2019-06-27T00:50:50.629Z,19.80
2019-06-27T00:52:54.987Z,19.80
2019-06-27T00:54:59.115Z,19.80
2019-06-27T00:57:13.448Z,19.80
2019-06-27T00:59:08.795Z,19.80
2019-06-27T01:01:13.040Z,19.80
2019-06-27T01:03:17.055Z,19.80
2019-06-27T01:05:21.145Z,19.70
2019-06-27T01:07:26.178Z,19.70
2019-06-27T01:09:30.188Z,19.70
2019-06-27T01:11:34.328Z,19.60
2019-06-27T01:13:38.422Z,19.70
2019-06-27T01:15:42.517Z,19.70
2019-06-27T01:17:46.530Z,19.70
2019-06-27T01:19:50.688Z,19.60
2019-06-27T01:21:54.845Z,19.50
2019-06-27T01:23:58.868Z,19.00
2019-06-27T01:26:02.909Z,19.30
2019-06-27T01:28:07.214Z,19.40
2019-06-27T01:30:11.585Z,19.40
2019-06-27T01:32:15.798Z,19.20
2019-06-27T01:34:19.758Z,19.20
2019-06-27T01:36:23.797Z,18.90
2019-06-27T01:38:27.960Z,19.00
2019-06-27T01:40:32.847Z,19.00
2019-06-27T01:42:37.038Z,18.80
2019-06-27T01:44:42.898Z,18.60
2019-06-27T01:46:46.910Z,18.60
2019-06-27T01:48:51.463Z,18.60
2019-06-27T01:50:55.617Z,18.40
2019-06-27T01:52:59.888Z,18.40
2019-06-27T01:55:05.238Z,18.50
2019-06-27T01:57:09.337Z,18.60
2019-06-27T01:59:13.555Z,18.40
2019-06-27T02:01:17.517Z,18.60
2019-06-27T02:03:21.908Z,18.40
2019-06-27T02:05:26.068Z,18.60
2019-06-27T02:07:30.209Z,18.40
2019-06-27T02:09:34.520Z,18.40
2019-06-27T02:11:38.612Z,18.50
2019-06-27T02:13:42.907Z,18.20
2019-06-27T02:15:47.225Z,18.30
2019-06-27T02:17:51.224Z,18.30
2019-06-27T02:19:55.367Z,18.10
2019-06-27T02:21:59.547Z,18.30
2019-06-27T02:24:03.624Z,18.40
2019-06-27T02:26:07.828Z,18.60
2019-06-27T02:28:12.067Z,18.50
2019-06-27T02:30:18.052Z,18.40
2019-06-27T02:32:22.258Z,18.30
2019-06-27T02:34:26.369Z,18.00
2019-06-27T02:36:30.768Z,18.00
2019-06-27T02:38:35.361Z,18.00
2019-06-27T02:40:39.588Z,18.30
2019-06-27T02:42:44.059Z,18.20
2019-06-27T02:44:48.413Z,18.20
2019-06-27T02:46:53.066Z,18.30
2019-06-27T02:48:57.664Z,18.20
2019-06-27T02:51:03.381Z,17.90
2019-06-27T02:53:08.086Z,18.00
2019-06-27T02:55:12.320Z,18.10
2019-06-27T02:57:16.682Z,18.10
2019-06-27T02:59:21.589Z,18.30
2019-06-27T03:01:26.182Z,18.40
2019-06-27T03:03:30.609Z,18.40
2019-06-27T03:05:35.344Z,18.40
2019-06-27T03:07:39.648Z,18.40
2019-06-27T03:09:43.906Z,18.50
2019-06-27T03:11:48.410Z,18.60
2019-06-27T03:13:52.478Z,18.60
2019-06-27T03:15:56.504Z,18.60
2019-06-27T03:18:00.709Z,18.60
2019-06-27T03:20:10.065Z,18.50
2019-06-27T03:22:14.101Z,18.60
2019-06-27T03:24:18.278Z,18.50
2019-06-27T03:26:22.278Z,18.50
2019-06-27T03:28:26.442Z,18.50
2019-06-27T03:30:30.710Z,18.60
2019-06-27T03:32:34.780Z,18.60
2019-06-27T03:34:38.832Z,18.60
2019-06-27T03:36:43.080Z,18.60
2019-06-27T03:38:47.165Z,18.20
2019-06-27T03:40:51.283Z,18.40
2019-06-27T03:42:55.308Z,18.30
2019-06-27T03:44:59.339Z,18.40
2019-06-27T03:47:03.418Z,18.30
2019-06-27T03:49:07.604Z,18.30
2019-06-27T03:51:11.686Z,18.30
2019-06-27T03:53:15.818Z,18.20
2019-06-27T03:55:19.980Z,18.20
2019-06-27T03:57:23.936Z,18.30
2019-06-27T03:59:28.138Z,18.40
2019-06-27T04:01:32.377Z,18.40
2019-06-27T04:03:36.407Z,18.30
2019-06-27T04:05:40.443Z,18.30
2019-06-27T04:07:44.680Z,18.30
2019-06-27T04:09:48.867Z,18.00
2019-06-27T04:11:53.037Z,18.00
2019-06-27T04:13:57.255Z,17.90
2019-06-27T04:16:01.294Z,17.80
2019-06-27T04:18:05.435Z,18.00
2019-06-27T04:20:09.677Z,18.00
2019-06-27T04:22:17.270Z,18.10
2019-06-27T04:24:19.545Z,18.10
2019-06-27T04:26:23.727Z,17.90
2019-06-27T04:28:27.778Z,18.00
2019-06-27T04:30:31.895Z,18.10
2019-06-27T04:32:36.185Z,18.20
2019-06-27T04:34:40.144Z,18.20
2019-06-27T04:36:44.311Z,18.20
2019-06-27T04:38:48.381Z,18.30
2019-06-27T04:40:52.455Z,18.20
2019-06-27T04:42:56.583Z,18.30
2019-06-27T04:45:00.809Z,18.30
2019-06-27T04:47:04.898Z,18.30
2019-06-27T04:49:13.540Z,18.10
2019-06-27T04:51:15.590Z,18.10
2019-06-27T04:53:19.717Z,18.10
2019-06-27T04:55:23.736Z,18.10
2019-06-27T04:57:27.890Z,18.10
2019-06-27T04:59:51.493Z,18.20
2019-06-27T05:01:37.710Z,18.30
2019-06-27T05:03:41.835Z,18.20
2019-06-27T05:05:46.026Z,18.30
2019-06-27T05:07:49.998Z,18.30
2019-06-27T05:09:54.057Z,18.30
2019-06-27T05:11:58.028Z,18.30
2019-06-27T05:14:01.990Z,18.30
2019-06-27T05:16:06.207Z,18.30
2019-06-27T05:18:10.347Z,18.30
2019-06-27T05:20:14.538Z,18.30
2019-06-27T05:22:18.780Z,18.30
2019-06-27T05:24:23.056Z,18.30
2019-06-27T05:26:27.302Z,18.30
2019-06-27T05:28:31.807Z,18.30
2019-06-27T05:30:36.356Z,18.30
2019-06-27T05:32:40.968Z,18.20
2019-06-27T05:34:45.657Z,18.30
2019-06-27T05:36:50.349Z,18.30
2019-06-27T05:38:54.595Z,18.30
2019-06-27T05:40:59.435Z,18.30
2019-06-27T05:43:03.927Z,18.30
2019-06-27T05:45:08.647Z,18.30
2019-06-27T05:47:13.507Z,18.40
2019-06-27T05:49:17.418Z,18.30
2019-06-27T05:51:21.565Z,18.20
2019-06-27T05:53:25.807Z,18.30
2019-06-27T05:55:30.008Z,18.30
2019-06-27T05:57:34.187Z,18.30
2019-06-27T05:59:38.339Z,18.30
2019-06-27T06:01:42.303Z,18.30
2019-06-27T06:03:46.687Z,18.20
2019-06-27T06:05:51.274Z,18.20
2019-06-27T06:07:55.527Z,18.10
2019-06-27T06:10:00.079Z,18.20
2019-06-27T06:12:04.502Z,18.20
2019-06-27T06:14:09.074Z,18.30
2019-06-27T06:16:13.687Z,18.30
2019-06-27T06:18:18.485Z,18.30
2019-06-27T06:20:24.217Z,18.30
2019-06-27T06:22:28.643Z,18.20
2019-06-27T06:24:33.438Z,18.00
2019-06-27T06:26:38.043Z,18.20
2019-06-27T06:28:42.728Z,18.30
2019-06-27T06:30:46.833Z,18.20
2019-06-27T06:32:50.862Z,18.30
2019-06-27T06:34:55.007Z,18.30
2019-06-27T06:36:59.277Z,18.30
2019-06-27T06:39:03.867Z,18.30
2019-06-27T06:41:07.844Z,18.40
2019-06-27T06:43:11.917Z,18.40
2019-06-27T06:45:16.127Z,18.40
2019-06-27T06:47:20.175Z,18.40
2019-06-27T06:49:24.385Z,18.30
2019-06-27T06:51:28.417Z,18.30
2019-06-27T06:53:32.418Z,18.40
2019-06-27T06:55:36.527Z,18.40
2019-06-27T06:57:40.648Z,18.20
2019-06-27T06:59:44.865Z,18.40
2019-06-27T07:01:48.986Z,18.40
2019-06-27T07:03:53.047Z,18.50
2019-06-27T07:05:57.137Z,18.40
2019-06-27T07:08:01.297Z,18.30
2019-06-27T07:10:08.257Z,18.20
2019-06-27T07:12:12.217Z,18.30
2019-06-27T07:14:16.347Z,18.10
2019-06-27T07:16:20.295Z,18.00
2019-06-27T07:18:24.410Z,18.10
2019-06-27T07:20:28.527Z,18.20
2019-06-27T07:22:32.567Z,17.80
2019-06-27T07:24:36.619Z,17.90
2019-06-27T07:26:40.777Z,17.80
2019-06-27T07:28:44.958Z,17.90
2019-06-27T07:30:49.082Z,18.20
2019-06-27T07:32:53.448Z,18.20
2019-06-27T07:34:57.658Z,18.30
2019-06-27T07:37:01.989Z,18.30
2019-06-27T07:39:06.119Z,18.20
2019-06-27T07:41:10.286Z,18.20
2019-06-27T07:43:14.347Z,18.20
2019-06-27T07:45:18.553Z,18.10
2019-06-27T07:47:22.496Z,18.30
2019-06-27T07:49:26.448Z,18.30
2019-06-27T07:51:30.688Z,18.40
2019-06-27T07:53:34.747Z,18.40
2019-06-27T07:55:38.764Z,18.20
2019-06-27T07:57:42.958Z,18.20
2019-06-27T07:59:46.916Z,18.10
2019-06-27T08:01:51.159Z,18.00
2019-06-27T08:03:55.270Z,18.20
2019-06-27T08:05:59.390Z,18.30
2019-06-27T08:08:03.557Z,18.30
2019-06-27T08:10:08.296Z,18.30
2019-06-27T08:12:12.448Z,18.30
2019-06-27T08:14:16.484Z,18.40
2019-06-27T08:16:20.627Z,18.40
2019-06-27T08:18:28.174Z,18.50
2019-06-27T08:20:30.248Z,18.40
2019-06-27T08:22:34.478Z,18.50
2019-06-27T08:24:38.544Z,18.30
2019-06-27T08:26:42.567Z,18.20
2019-06-27T08:28:46.752Z,18.40
2019-06-27T08:30:50.888Z,18.50
2019-06-27T08:32:56.282Z,18.50
2019-06-27T08:35:00.418Z,18.30
2019-06-27T08:37:04.397Z,18.40
2019-06-27T08:39:08.407Z,18.40
2019-06-27T08:41:14.065Z,18.30
2019-06-27T08:43:18.575Z,18.30
2019-06-27T08:45:22.781Z,18.30
2019-06-27T09:11:20.658Z,18.50
2019-06-27T09:13:26.187Z,18.40
2019-06-27T09:15:30.197Z,18.50
2019-06-27T09:17:34.324Z,18.50
2019-06-27T09:19:38.415Z,18.40
2019-06-27T09:21:42.490Z,18.40
2019-06-27T09:23:46.688Z,18.20
2019-06-27T09:25:50.845Z,18.30
2019-06-27T09:27:54.836Z,18.30
2019-06-27T09:29:58.936Z,18.30
2019-06-27T09:32:02.975Z,18.30
2019-06-27T09:34:06.938Z,18.30
2019-06-27T09:36:11.214Z,18.30
2019-06-27T09:38:15.276Z,18.30
2019-06-27T09:40:19.823Z,18.20
2019-06-27T09:42:23.974Z,18.30
2019-06-27T09:44:28.024Z,18.50
2019-06-27T09:46:32.178Z,18.50
2019-06-27T09:48:36.365Z,18.50
2019-06-27T09:50:40.479Z,18.50
2019-06-27T09:52:44.525Z,18.50
2019-06-27T09:54:48.796Z,18.50
2019-06-27T09:56:52.855Z,18.40
2019-06-27T09:58:56.914Z,18.50
2019-06-27T10:01:01.415Z,18.50
2019-06-27T10:03:06.966Z,18.50
2019-06-27T10:05:11.212Z,18.50
2019-06-27T10:07:15.340Z,18.40
2019-06-27T10:09:19.344Z,18.60
2019-06-27T10:11:23.415Z,18.60
2019-06-27T10:13:27.505Z,18.50
2019-06-27T10:15:31.775Z,18.50
2019-06-27T10:17:35.846Z,18.60
2019-06-27T10:19:40.003Z,18.60
2019-06-27T10:21:44.204Z,18.60
2019-06-27T10:23:50.032Z,18.60
2019-06-27T10:25:54.243Z,18.70
2019-06-27T10:27:58.295Z,18.70
2019-06-27T10:30:02.629Z,18.70
2019-06-27T10:32:06.993Z,18.70
2019-06-27T10:34:11.095Z,18.70
2019-06-27T10:36:15.215Z,18.80
2019-06-27T10:38:19.396Z,18.80
2019-06-27T10:40:23.424Z,18.80
2019-06-27T10:42:27.415Z,18.80
2019-06-27T10:44:31.545Z,18.80
2019-06-27T10:46:35.585Z,18.70
2019-06-27T10:48:41.060Z,18.80
2019-06-27T10:50:46.597Z,18.70
2019-06-27T10:52:50.798Z,18.80
2019-06-27T10:54:54.880Z,18.70
2019-06-27T10:56:58.924Z,18.80
2019-06-27T10:59:02.954Z,18.80
2019-06-27T11:01:07.075Z,18.80
2019-06-27T11:03:15.322Z,18.80
2019-06-27T11:05:16.894Z,18.80
2019-06-27T11:07:20.895Z,18.80
2019-06-27T11:09:25.065Z,18.80
2019-06-27T11:11:29.125Z,18.80
2019-06-27T11:13:33.085Z,18.80
2019-06-27T11:15:37.526Z,18.80
2019-06-27T11:17:41.591Z,18.80
2019-06-27T11:19:52.255Z,18.80
2019-06-27T11:21:54.661Z,18.80
2019-06-27T11:23:58.695Z,18.90
2019-06-27T11:26:02.724Z,19.00
2019-06-27T11:28:10.351Z,19.00
2019-06-27T11:30:14.811Z,19.00
2019-06-27T11:32:18.876Z,19.00
2019-06-27T11:34:23.256Z,19.00
2019-06-27T11:36:27.286Z,19.00
2019-06-27T11:38:31.262Z,18.90
2019-06-27T11:40:35.896Z,18.90
2019-06-27T11:42:39.972Z,19.00
2019-06-27T11:44:44.057Z,19.10
2019-06-27T11:46:48.226Z,19.10
2019-06-27T11:48:52.387Z,19.10
2019-06-27T11:50:56.481Z,19.10
2019-06-27T11:53:00.655Z,19.10
2019-06-27T11:55:05.554Z,19.10
2019-06-27T11:57:09.495Z,19.10
2019-06-27T11:59:13.670Z,19.10
2019-06-27T12:01:17.706Z,19.10
2019-06-27T12:03:21.837Z,19.10
2019-06-27T12:05:26.065Z,19.10
2019-06-27T12:07:30.245Z,19.10
2019-06-27T12:09:34.344Z,19.20
2019-06-27T12:11:38.563Z,19.10
2019-06-27T12:13:42.715Z,19.10
2019-06-27T12:15:46.679Z,19.00
2019-06-27T12:17:50.816Z,18.90
2019-06-27T12:19:57.055Z,19.00
2019-06-27T12:22:01.549Z,18.90
2019-06-27T12:24:05.723Z,19.00
2019-06-27T12:26:09.787Z,19.10
2019-06-27T12:28:13.894Z,19.10
2019-06-27T12:30:18.186Z,19.00
2019-06-27T12:32:22.586Z,19.00
2019-06-27T12:34:26.790Z,18.90
2019-06-27T12:36:30.908Z,19.00
2019-06-27T12:38:34.985Z,19.00
2019-06-27T12:40:38.853Z,19.00
2019-06-27T12:42:43.145Z,19.10
2019-06-27T12:44:47.178Z,19.10
2019-06-27T12:46:51.303Z,19.10
2019-06-27T12:48:55.595Z,19.10
2019-06-27T12:50:59.756Z,19.10
2019-06-27T12:53:03.946Z,19.10
2019-06-27T12:55:08.046Z,19.20
2019-06-27T12:57:12.025Z,19.20
2019-06-27T12:59:16.134Z,19.30
2019-06-27T13:01:20.314Z,19.30
2019-06-27T13:03:24.365Z,19.30
2019-06-27T13:05:28.361Z,19.30
2019-06-27T13:07:34.126Z,19.30
2019-06-27T13:09:38.090Z,19.30
2019-06-27T13:11:42.156Z,19.30
2019-06-27T13:13:46.349Z,19.30
2019-06-27T13:15:50.398Z,19.10
2019-06-27T13:17:54.606Z,19.20
2019-06-27T13:19:58.823Z,19.20
2019-06-27T13:22:02.867Z,19.20
2019-06-27T13:24:06.814Z,19.30
2019-06-27T13:26:10.916Z,19.30
2019-06-27T13:28:14.924Z,19.30
2019-06-27T13:30:19.403Z,19.10
2019-06-27T13:32:25.491Z,19.10
2019-06-27T13:34:39.863Z,19.00
2019-06-27T13:36:35.316Z,19.00
2019-06-27T13:38:39.415Z,19.10
2019-06-27T13:40:43.377Z,19.10
2019-06-27T13:42:47.455Z,19.10
2019-06-27T13:44:51.765Z,19.10
2019-06-27T13:46:55.955Z,19.10
2019-06-27T13:49:00.038Z,19.20
2019-06-27T13:51:04.103Z,19.30
2019-06-27T13:53:08.195Z,19.30
2019-06-27T13:55:12.325Z,19.40
2019-06-27T13:57:16.534Z,19.40
2019-06-27T13:59:20.625Z,19.40
2019-06-27T14:01:24.695Z,19.30
2019-06-27T14:03:28.956Z,19.30
2019-06-27T14:05:33.034Z,19.20
2019-06-27T14:07:37.214Z,19.00
2019-06-27T14:09:52.325Z,18.90
2019-06-27T14:11:47.114Z,18.80
2019-06-27T14:13:51.362Z,18.70
2019-06-27T14:15:55.585Z,18.80
2019-06-27T14:17:59.735Z,18.70
2019-06-27T14:20:05.155Z,18.70
2019-06-27T14:22:15.038Z,18.70
2019-06-27T14:24:17.648Z,18.70
2019-06-27T14:26:21.966Z,18.60
2019-06-27T14:28:26.155Z,18.50
2019-06-27T14:30:30.222Z,18.50
2019-06-27T14:32:34.405Z,18.60
2019-06-27T14:34:38.475Z,18.70
2019-06-27T14:36:42.418Z,18.70
2019-06-27T14:38:46.455Z,18.80
2019-06-27T14:40:50.677Z,18.80
2019-06-27T14:42:54.756Z,18.70
2019-06-27T14:44:58.743Z,18.80
2019-06-27T14:47:02.894Z,18.80
2019-06-27T14:49:07.023Z,18.80
2019-06-27T14:51:11.085Z,18.90
2019-06-27T14:53:15.240Z,18.90
2019-06-27T14:55:22.697Z,19.00
2019-06-27T14:57:26.757Z,18.90
2019-06-27T14:59:30.856Z,18.90
2019-06-27T15:01:34.846Z,18.90
2019-06-27T15:03:38.885Z,18.80
2019-06-27T15:05:43.095Z,18.70
2019-06-27T15:07:47.227Z,18.70
2019-06-27T15:09:51.296Z,18.70
2019-06-27T15:11:55.485Z,18.90
2019-06-27T15:13:59.439Z,18.80
2019-06-27T15:16:11.803Z,18.90
2019-06-27T15:18:09.298Z,18.80
2019-06-27T15:20:13.566Z,18.80
2019-06-27T15:22:17.645Z,18.80
2019-06-27T15:24:21.745Z,19.00
2019-06-27T15:26:25.755Z,19.10
2019-06-27T15:28:29.875Z,19.30
2019-06-27T15:30:34.192Z,19.20
2019-06-27T15:32:38.270Z,19.10
2019-06-27T15:34:42.357Z,19.10
2019-06-27T15:36:46.546Z,19.00
2019-06-27T15:38:50.705Z,18.90
2019-06-27T15:40:55.555Z,18.90
2019-06-27T15:43:00.045Z,18.70
2019-06-27T15:45:05.163Z,18.60
2019-06-27T15:47:09.324Z,18.60
2019-06-27T15:49:13.555Z,18.60
2019-06-27T15:51:17.735Z,18.60
2019-06-27T15:53:21.982Z,18.60
2019-06-27T15:55:26.147Z,18.60
2019-06-27T15:57:30.305Z,18.80
2019-06-27T15:59:34.425Z,18.80
2019-06-27T16:01:38.575Z,18.80
2019-06-27T16:03:42.655Z,18.80
2019-06-27T16:05:46.895Z,18.70
2019-06-27T16:07:51.006Z,18.70
2019-06-27T16:09:54.996Z,18.60
2019-06-27T16:11:59.165Z,18.60
2019-06-27T16:14:03.427Z,18.50
2019-06-27T16:16:07.430Z,18.50
2019-06-27T16:18:11.525Z,18.70
2019-06-27T16:20:17.615Z,18.70
2019-06-27T16:22:21.685Z,18.80
2019-06-27T16:24:25.828Z,18.80
2019-06-27T16:26:30.017Z,18.90
2019-06-27T16:28:34.045Z,18.90
2019-06-27T16:30:38.075Z,19.00
2019-06-27T16:32:42.156Z,19.10
2019-06-27T16:34:46.208Z,19.20
2019-06-27T16:36:50.237Z,19.20
2019-06-27T16:38:54.470Z,19.10
2019-06-27T16:40:58.484Z,19.10
2019-06-27T16:43:02.715Z,19.10
2019-06-27T16:45:08.068Z,18.90
2019-06-27T16:47:12.195Z,19.00
2019-06-27T16:49:16.214Z,18.90
2019-06-27T16:51:20.709Z,18.80
2019-06-27T16:53:24.895Z,18.90
2019-06-27T16:55:29.015Z,18.80
2019-06-27T16:57:33.156Z,18.80
2019-06-27T16:59:37.327Z,18.70
2019-06-27T17:01:41.526Z,18.70
2019-06-27T17:03:45.666Z,18.80
2019-06-27T17:05:49.635Z,18.90
2019-06-27T17:07:53.779Z,19.00
2019-06-27T17:09:57.896Z,19.10
2019-06-27T17:12:04.738Z,19.00
2019-06-27T17:14:08.855Z,18.90
2019-06-27T17:16:13.115Z,19.00
2019-06-27T17:18:17.207Z,19.10
2019-06-27T17:20:21.425Z,19.10
2019-06-27T17:22:25.526Z,19.10
2019-06-27T17:24:29.514Z,19.10
2019-06-27T17:26:33.534Z,19.10
2019-06-27T17:28:37.908Z,19.00
2019-06-27T17:30:42.052Z,19.00
2019-06-27T17:32:46.176Z,19.00
2019-06-27T17:34:50.276Z,18.90
2019-06-27T17:36:57.856Z,18.90
2019-06-27T17:38:59.898Z,18.90
2019-06-27T17:41:03.955Z,18.90
2019-06-27T17:43:07.912Z,18.90
2019-06-27T17:45:12.104Z,18.80
2019-06-27T17:47:16.175Z,18.70
2019-06-27T17:49:20.315Z,18.60
2019-06-27T17:51:24.375Z,18.50
2019-06-27T17:53:28.594Z,18.50
2019-06-27T17:55:32.574Z,18.60
2019-06-27T17:57:36.595Z,18.60
2019-06-27T17:59:40.685Z,18.70
2019-06-27T18:01:44.735Z,18.70
2019-06-27T18:03:48.920Z,18.60
2019-06-27T18:05:53.063Z,18.50
2019-06-27T18:07:57.155Z,18.60
2019-06-27T18:10:01.234Z,18.60
2019-06-27T18:12:05.505Z,18.50
2019-06-27T18:14:09.705Z,18.30
2019-06-27T18:16:13.923Z,18.60
2019-06-27T18:18:18.154Z,18.70
2019-06-27T18:20:22.275Z,18.60
2019-06-27T18:22:26.345Z,18.60
2019-06-27T18:24:30.515Z,18.60
2019-06-27T18:26:34.543Z,18.60
2019-06-27T18:28:38.724Z,18.60
2019-06-27T18:30:42.774Z,18.60
2019-06-27T18:32:46.835Z,18.50
2019-06-27T18:34:50.924Z,18.30
2019-06-27T18:36:55.134Z,18.20
2019-06-27T18:38:59.137Z,18.10
2019-06-27T18:41:03.205Z,18.20
2019-06-27T18:43:07.283Z,18.10
2019-06-27T18:45:11.365Z,18.00
2019-06-27T18:47:15.684Z,17.80
2019-06-27T18:49:19.933Z,17.80
2019-06-27T18:51:24.054Z,17.90
2019-06-27T18:53:28.094Z,17.90
2019-06-27T18:55:32.645Z,17.70
2019-06-27T18:57:36.562Z,17.80
2019-06-27T18:59:40.605Z,17.80
2019-06-27T19:01:44.838Z,17.60
2019-06-27T19:03:48.874Z,17.70
2019-06-27T19:05:53.055Z,17.70
2019-06-27T19:07:57.205Z,17.80
2019-06-27T19:10:01.315Z,17.80
2019-06-27T19:12:05.505Z,17.90
2019-06-27T19:14:09.699Z,17.80
2019-06-27T19:16:13.635Z,17.80
2019-06-27T19:18:34.655Z,18.00
2019-06-27T19:20:40.378Z,18.00
2019-06-27T19:23:01.325Z,17.90
2019-06-27T19:25:08.704Z,17.90
2019-06-27T19:27:32.232Z,18.00
2019-06-27T19:29:36.214Z,18.00
2019-06-27T19:31:40.353Z,18.10
2019-06-27T19:33:44.326Z,18.10
2019-06-27T19:35:48.216Z,18.10
2019-06-27T19:38:01.248Z,18.10
2019-06-27T19:39:57.916Z,17.90
2019-06-27T19:42:02.046Z,17.80
2019-06-27T19:44:06.095Z,17.90
2019-06-27T19:46:10.176Z,18.00
2019-06-27T19:48:14.174Z,18.00
2019-06-27T19:50:18.606Z,17.90
2019-06-27T19:52:22.755Z,17.80
2019-06-27T19:54:26.736Z,17.80
2019-06-27T19:56:30.701Z,17.80
2019-06-27T19:58:34.785Z,17.80
2019-06-27T20:00:38.879Z,17.90
2019-06-27T20:02:42.823Z,17.80
2019-06-27T20:04:47.043Z,17.80
2019-06-27T20:06:51.145Z,17.90
2019-06-27T20:08:55.054Z,17.80
2019-06-27T20:10:59.066Z,17.90
2019-06-27T20:13:03.093Z,17.60
2019-06-27T20:15:07.255Z,17.60
2019-06-27T20:17:11.333Z,17.60
2019-06-27T20:19:15.403Z,17.60
2019-06-27T20:21:19.425Z,17.40
2019-06-27T20:23:23.696Z,17.40
2019-06-27T20:25:27.709Z,17.60
2019-06-27T20:27:31.855Z,17.70
2019-06-27T20:29:36.034Z,17.80
2019-06-27T20:31:40.244Z,17.60
2019-06-27T20:33:44.585Z,17.70
2019-06-27T20:35:48.963Z,17.70
2019-06-27T20:37:53.114Z,17.80
2019-06-27T20:39:57.167Z,17.80
2019-06-27T20:42:01.568Z,17.90
2019-06-27T20:44:05.826Z,17.90
2019-06-27T20:46:09.745Z,17.90
2019-06-27T20:48:13.964Z,17.90
2019-06-27T20:50:18.338Z,17.90
2019-06-27T20:52:22.316Z,17.90
2019-06-27T20:54:26.515Z,17.90
2019-06-27T20:56:30.736Z,17.90
2019-06-27T20:58:34.707Z,17.90
2019-06-27T21:00:38.825Z,17.90
2019-06-27T21:02:42.900Z,17.80
2019-06-27T21:04:46.820Z,17.90
2019-06-27T21:06:50.925Z,17.90
2019-06-27T21:08:54.913Z,17.90
2019-06-27T21:10:58.926Z,17.80
2019-06-27T21:13:03.238Z,17.90
2019-06-27T21:15:08.800Z,17.80
2019-06-27T21:17:12.937Z,17.80
2019-06-27T21:19:17.367Z,17.70
2019-06-27T21:21:21.728Z,17.80
2019-06-27T21:23:26.021Z,17.80
2019-06-27T21:25:30.398Z,17.80
2019-06-27T21:27:34.438Z,17.80
2019-06-27T21:29:38.543Z,17.70
2019-06-27T21:31:42.716Z,17.70
2019-06-27T21:33:46.912Z,17.80
2019-06-27T21:35:51.129Z,17.70
2019-06-27T21:37:55.406Z,17.70
2019-06-27T21:39:59.552Z,17.70
2019-06-27T21:42:03.706Z,17.70
2019-06-27T21:44:07.849Z,17.70
2019-06-27T21:46:12.053Z,17.70
2019-06-27T21:48:16.059Z,17.70
2019-06-27T21:50:20.238Z,17.60
2019-06-27T21:52:24.259Z,17.70
2019-06-27T21:54:28.348Z,17.60
2019-06-27T21:56:32.309Z,17.50
2019-06-27T21:58:36.420Z,17.40
2019-06-27T22:00:40.985Z,17.40
2019-06-27T22:02:45.177Z,17.50
2019-06-27T22:04:49.278Z,17.30
2019-06-27T22:06:53.518Z,17.20
2019-06-27T22:08:57.899Z,17.20
2019-06-27T22:11:02.232Z,17.10
2019-06-27T22:13:06.417Z,17.10
2019-06-27T22:15:10.987Z,17.00
2019-06-27T22:17:15.105Z,17.10
2019-06-27T22:19:19.118Z,17.10
2019-06-27T22:21:23.238Z,17.20
2019-06-27T22:23:27.366Z,17.30
2019-06-27T22:25:40.366Z,17.20
2019-06-27T22:27:37.269Z,17.30
2019-06-27T22:29:41.343Z,17.30
2019-06-27T22:31:45.406Z,17.20
2019-06-27T22:33:49.609Z,17.10
2019-06-27T22:35:53.926Z,17.20
2019-06-27T22:38:15.898Z,17.20
2019-06-27T22:40:37.671Z,17.20
2019-06-27T22:43:04.065Z,17.00
2019-06-27T22:45:27.387Z,16.90
2019-06-27T22:47:49.778Z,17.00
2019-06-27T22:49:53.099Z,17.00
2019-06-27T22:52:15.339Z,17.10
2019-06-27T22:54:21.119Z,17.20
2019-06-27T22:56:25.138Z,17.30
2019-06-27T22:58:29.227Z,17.00
2019-06-27T23:00:33.411Z,17.00
2019-06-27T23:02:37.458Z,17.00
2019-06-27T23:04:41.547Z,16.90
2019-06-27T23:06:45.872Z,17.10
2019-06-27T23:08:49.886Z,17.10
2019-06-27T23:10:53.925Z,16.90
2019-06-27T23:12:58.110Z,17.10
2019-06-27T23:15:02.195Z,17.00
2019-06-27T23:17:06.450Z,17.10
2019-06-27T23:19:11.666Z,17.10
2019-06-27T23:21:15.869Z,17.00
2019-06-27T23:23:19.998Z,16.80
2019-06-27T23:25:24.256Z,16.70
2019-06-27T23:27:28.338Z,16.70
2019-06-27T23:29:32.356Z,16.70
2019-06-27T23:31:36.605Z,16.80
2019-06-27T23:33:40.660Z,16.80
2019-06-27T23:35:44.689Z,16.70
2019-06-27T23:37:48.917Z,16.70
2019-06-27T23:39:52.958Z,16.80
2019-06-27T23:41:57.117Z,16.80
2019-06-27T23:44:01.273Z,16.80
2019-06-27T23:46:06.886Z,16.70
2019-06-27T23:48:10.908Z,16.80
2019-06-27T23:50:15.087Z,16.70
2019-06-27T23:52:19.268Z,16.60
2019-06-27T23:54:23.441Z,16.60
2019-06-27T23:56:27.719Z,16.80
2019-06-27T23:58:31.996Z,16.90
